sensor_id;sensor_type;location;lat;lon;timestamp;P1;durP1;ratioP1;P2;durP2;ratioP2
71963;SDS011;59834;52.124;5.422;2023-03-03T00:01:27;11.57;;;6.15;;
71963;SDS011;59834;52.124;5.422;2023-03-03T00:03:55;15.53;;;6.47;;
71963;SDS011;59834;52.124;5.422;2023-03-03T00:06:22;12.98;;;5.85;;
71963;SDS011;59834;52.124;5.422;2023-03-03T00:08:50;10.38;;;5.32;;
71963;SDS011;59834;52.124;5.422;2023-03-03T00:11:16;11.60;;;6.05;;
71963;SDS011;59834;52.124;5.422;2023-03-03T00:13:44;11.30;;;5.68;;
71963;SDS011;59834;52.124;5.422;2023-03-03T00:18:50;12.10;;;5.88;;
71963;SDS011;59834;52.124;5.422;2023-03-03T00:24:04;13.73;;;5.93;;
71963;SDS011;59834;52.124;5.422;2023-03-03T00:26:44;12.48;;;4.43;;
71963;SDS011;59834;52.124;5.422;2023-03-03T00:29:23;10.17;;;5.10;;
71963;SDS011;59834;52.124;5.422;2023-03-03T00:34:41;11.20;;;4.90;;
71963;SDS011;59834;52.124;5.422;2023-03-03T00:40:14;14.20;;;6.35;;
71963;SDS011;59834;52.124;5.422;2023-03-03T00:42:51;12.43;;;5.43;;
71963;SDS011;59834;52.124;5.422;2023-03-03T00:45:30;11.98;;;6.47;;
71963;SDS011;59834;52.124;5.422;2023-03-03T00:47:57;10.52;;;5.07;;
71963;SDS011;59834;52.124;5.422;2023-03-03T00:53:11;13.63;;;6.15;;
71963;SDS011;59834;52.124;5.422;2023-03-03T00:55:42;12.73;;;6.33;;
71963;SDS011;59834;52.124;5.422;2023-03-03T00:58:09;12.25;;;6.40;;
71963;SDS011;59834;52.124;5.422;2023-03-03T01:00:36;13.88;;;6.60;;
71963;SDS011;59834;52.124;5.422;2023-03-03T01:03:05;15.68;;;7.05;;
71963;SDS011;59834;52.124;5.422;2023-03-03T01:05:38;11.13;;;5.60;;
71963;SDS011;59834;52.124;5.422;2023-03-03T01:08:05;11.47;;;6.03;;
71963;SDS011;59834;52.124;5.422;2023-03-03T01:10:33;14.35;;;6.80;;
71963;SDS011;59834;52.124;5.422;2023-03-03T01:13:03;16.33;;;6.78;;
71963;SDS011;59834;52.124;5.422;2023-03-03T01:15:31;10.90;;;3.90;;
71963;SDS011;59834;52.124;5.422;2023-03-03T01:17:57;15.63;;;7.82;;
71963;SDS011;59834;52.124;5.422;2023-03-03T01:20:25;14.87;;;6.80;;
71963;SDS011;59834;52.124;5.422;2023-03-03T01:22:51;15.73;;;7.00;;
71963;SDS011;59834;52.124;5.422;2023-03-03T01:25:18;14.25;;;5.88;;
71963;SDS011;59834;52.124;5.422;2023-03-03T01:27:44;16.20;;;8.10;;
71963;SDS011;59834;52.124;5.422;2023-03-03T01:30:11;12.35;;;5.13;;
71963;SDS011;59834;52.124;5.422;2023-03-03T01:32:38;14.47;;;6.17;;
71963;SDS011;59834;52.124;5.422;2023-03-03T01:35:05;21.58;;;8.15;;
71963;SDS011;59834;52.124;5.422;2023-03-03T01:37:33;14.40;;;7.35;;
71963;SDS011;59834;52.124;5.422;2023-03-03T01:40:01;19.10;;;6.00;;
71963;SDS011;59834;52.124;5.422;2023-03-03T01:42:29;16.60;;;6.43;;
71963;SDS011;59834;52.124;5.422;2023-03-03T01:45:10;16.20;;;7.73;;
71963;SDS011;59834;52.124;5.422;2023-03-03T01:47:47;18.50;;;6.45;;
71963;SDS011;59834;52.124;5.422;2023-03-03T01:50:39;15.38;;;7.47;;
71963;SDS011;59834;52.124;5.422;2023-03-03T01:54:03;13.48;;;5.82;;
71963;SDS011;59834;52.124;5.422;2023-03-03T01:56:11;17.75;;;8.15;;
71963;SDS011;59834;52.124;5.422;2023-03-03T01:58:43;15.90;;;6.50;;
71963;SDS011;59834;52.124;5.422;2023-03-03T02:01:38;15.10;;;6.35;;
71963;SDS011;59834;52.124;5.422;2023-03-03T02:04:08;12.05;;;5.43;;
71963;SDS011;59834;52.124;5.422;2023-03-03T02:06:43;12.68;;;6.38;;
71963;SDS011;59834;52.124;5.422;2023-03-03T02:12:19;14.63;;;7.50;;
71963;SDS011;59834;52.124;5.422;2023-03-03T02:14:48;22.23;;;8.60;;
71963;SDS011;59834;52.124;5.422;2023-03-03T02:17:15;14.30;;;6.68;;
71963;SDS011;59834;52.124;5.422;2023-03-03T02:22:33;17.27;;;7.72;;
71963;SDS011;59834;52.124;5.422;2023-03-03T02:25:27;13.87;;;6.33;;
71963;SDS011;59834;52.124;5.422;2023-03-03T02:27:59;16.70;;;7.43;;
71963;SDS011;59834;52.124;5.422;2023-03-03T02:30:27;17.50;;;7.55;;
71963;SDS011;59834;52.124;5.422;2023-03-03T02:32:54;17.58;;;7.50;;
71963;SDS011;59834;52.124;5.422;2023-03-03T02:35:34;12.70;;;5.50;;
71963;SDS011;59834;52.124;5.422;2023-03-03T02:38:14;14.43;;;7.40;;
71963;SDS011;59834;52.124;5.422;2023-03-03T02:40:49;17.80;;;7.50;;
71963;SDS011;59834;52.124;5.422;2023-03-03T02:43:23;10.57;;;6.07;;
71963;SDS011;59834;52.124;5.422;2023-03-03T02:45:54;13.23;;;6.78;;
71963;SDS011;59834;52.124;5.422;2023-03-03T02:48:21;17.33;;;7.05;;
71963;SDS011;59834;52.124;5.422;2023-03-03T02:50:48;16.10;;;7.53;;
71963;SDS011;59834;52.124;5.422;2023-03-03T02:53:14;14.98;;;6.32;;
71963;SDS011;59834;52.124;5.422;2023-03-03T02:55:40;15.63;;;6.50;;
71963;SDS011;59834;52.124;5.422;2023-03-03T02:58:07;18.02;;;6.22;;
71963;SDS011;59834;52.124;5.422;2023-03-03T03:00:33;16.08;;;6.95;;
71963;SDS011;59834;52.124;5.422;2023-03-03T03:03:00;18.90;;;7.90;;
71963;SDS011;59834;52.124;5.422;2023-03-03T03:05:27;16.63;;;5.90;;
71963;SDS011;59834;52.124;5.422;2023-03-03T03:07:54;14.93;;;7.05;;
71963;SDS011;59834;52.124;5.422;2023-03-03T03:10:20;21.38;;;7.50;;
71963;SDS011;59834;52.124;5.422;2023-03-03T03:12:46;16.77;;;7.70;;
71963;SDS011;59834;52.124;5.422;2023-03-03T03:15:13;19.03;;;8.37;;
71963;SDS011;59834;52.124;5.422;2023-03-03T03:17:41;17.70;;;7.07;;
71963;SDS011;59834;52.124;5.422;2023-03-03T03:20:07;20.23;;;8.27;;
71963;SDS011;59834;52.124;5.422;2023-03-03T03:22:34;16.00;;;6.70;;
71963;SDS011;59834;52.124;5.422;2023-03-03T03:25:01;15.43;;;7.03;;
71963;SDS011;59834;52.124;5.422;2023-03-03T03:27:27;19.70;;;8.33;;
71963;SDS011;59834;52.124;5.422;2023-03-03T03:29:54;16.58;;;6.95;;
71963;SDS011;59834;52.124;5.422;2023-03-03T03:32:20;20.58;;;8.23;;
71963;SDS011;59834;52.124;5.422;2023-03-03T03:34:47;19.80;;;8.48;;
71963;SDS011;59834;52.124;5.422;2023-03-03T03:37:13;21.90;;;7.78;;
71963;SDS011;59834;52.124;5.422;2023-03-03T03:39:40;21.30;;;10.00;;
71963;SDS011;59834;52.124;5.422;2023-03-03T03:42:07;20.15;;;9.00;;
71963;SDS011;59834;52.124;5.422;2023-03-03T03:44:33;22.17;;;9.73;;
71963;SDS011;59834;52.124;5.422;2023-03-03T03:47:00;19.73;;;8.13;;
71963;SDS011;59834;52.124;5.422;2023-03-03T03:49:27;27.70;;;8.70;;
71963;SDS011;59834;52.124;5.422;2023-03-03T03:51:53;20.97;;;8.17;;
71963;SDS011;59834;52.124;5.422;2023-03-03T03:54:19;19.35;;;7.80;;
71963;SDS011;59834;52.124;5.422;2023-03-03T03:56:46;18.92;;;7.82;;
71963;SDS011;59834;52.124;5.422;2023-03-03T03:59:13;24.65;;;8.70;;
71963;SDS011;59834;52.124;5.422;2023-03-03T04:01:40;23.70;;;9.00;;
71963;SDS011;59834;52.124;5.422;2023-03-03T04:04:06;17.90;;;7.70;;
71963;SDS011;59834;52.124;5.422;2023-03-03T04:06:33;21.17;;;7.88;;
71963;SDS011;59834;52.124;5.422;2023-03-03T04:09:00;24.30;;;10.02;;
71963;SDS011;59834;52.124;5.422;2023-03-03T04:11:26;22.05;;;8.00;;
71963;SDS011;59834;52.124;5.422;2023-03-03T04:13:53;23.30;;;9.23;;
71963;SDS011;59834;52.124;5.422;2023-03-03T04:16:19;18.23;;;7.87;;
71963;SDS011;59834;52.124;5.422;2023-03-03T04:18:46;19.00;;;7.07;;
71963;SDS011;59834;52.124;5.422;2023-03-03T04:21:13;18.52;;;7.40;;
71963;SDS011;59834;52.124;5.422;2023-03-03T04:23:40;17.30;;;7.60;;
71963;SDS011;59834;52.124;5.422;2023-03-03T04:26:07;11.68;;;6.13;;
71963;SDS011;59834;52.124;5.422;2023-03-03T04:28:34;21.20;;;7.60;;
71963;SDS011;59834;52.124;5.422;2023-03-03T04:31:00;13.85;;;6.53;;
71963;SDS011;59834;52.124;5.422;2023-03-03T04:33:27;15.18;;;6.95;;
71963;SDS011;59834;52.124;5.422;2023-03-03T04:35:54;19.63;;;6.53;;
71963;SDS011;59834;52.124;5.422;2023-03-03T04:38:20;18.13;;;6.75;;
71963;SDS011;59834;52.124;5.422;2023-03-03T04:40:47;16.60;;;6.43;;
71963;SDS011;59834;52.124;5.422;2023-03-03T04:43:13;21.55;;;8.02;;
71963;SDS011;59834;52.124;5.422;2023-03-03T04:45:40;26.80;;;7.82;;
71963;SDS011;59834;52.124;5.422;2023-03-03T04:48:06;20.20;;;6.50;;
71963;SDS011;59834;52.124;5.422;2023-03-03T04:50:33;17.17;;;5.88;;
71963;SDS011;59834;52.124;5.422;2023-03-03T04:53:00;18.93;;;7.70;;
71963;SDS011;59834;52.124;5.422;2023-03-03T04:55:26;26.23;;;8.38;;
71963;SDS011;59834;52.124;5.422;2023-03-03T04:57:53;17.92;;;7.57;;
71963;SDS011;59834;52.124;5.422;2023-03-03T05:00:19;18.85;;;6.68;;
71963;SDS011;59834;52.124;5.422;2023-03-03T05:02:46;17.50;;;6.75;;
71963;SDS011;59834;52.124;5.422;2023-03-03T05:05:13;16.00;;;5.20;;
71963;SDS011;59834;52.124;5.422;2023-03-03T05:07:40;17.92;;;7.63;;
71963;SDS011;59834;52.124;5.422;2023-03-03T05:10:07;19.45;;;6.60;;
71963;SDS011;59834;52.124;5.422;2023-03-03T05:12:34;18.83;;;6.05;;
71963;SDS011;59834;52.124;5.422;2023-03-03T05:15:00;19.33;;;5.80;;
71963;SDS011;59834;52.124;5.422;2023-03-03T05:17:27;23.37;;;5.43;;
71963;SDS011;59834;52.124;5.422;2023-03-03T05:19:53;17.38;;;6.00;;
71963;SDS011;59834;52.124;5.422;2023-03-03T05:22:22;20.65;;;5.90;;
71963;SDS011;59834;52.124;5.422;2023-03-03T05:24:49;15.82;;;4.55;;
71963;SDS011;59834;52.124;5.422;2023-03-03T05:27:16;20.13;;;5.78;;
71963;SDS011;59834;52.124;5.422;2023-03-03T05:29:43;17.93;;;5.67;;
71963;SDS011;59834;52.124;5.422;2023-03-03T05:32:10;13.73;;;5.07;;
71963;SDS011;59834;52.124;5.422;2023-03-03T05:34:36;13.23;;;5.43;;
71963;SDS011;59834;52.124;5.422;2023-03-03T05:37:03;17.92;;;5.97;;
71963;SDS011;59834;52.124;5.422;2023-03-03T05:39:32;15.85;;;5.40;;
71963;SDS011;59834;52.124;5.422;2023-03-03T05:41:59;21.40;;;7.53;;
71963;SDS011;59834;52.124;5.422;2023-03-03T05:44:26;19.00;;;6.70;;
71963;SDS011;59834;52.124;5.422;2023-03-03T05:46:53;17.48;;;6.10;;
71963;SDS011;59834;52.124;5.422;2023-03-03T05:49:21;19.08;;;6.13;;
71963;SDS011;59834;52.124;5.422;2023-03-03T05:51:48;20.08;;;7.28;;
71963;SDS011;59834;52.124;5.422;2023-03-03T05:54:15;22.80;;;7.10;;
71963;SDS011;59834;52.124;5.422;2023-03-03T05:56:41;16.63;;;6.13;;
71963;SDS011;59834;52.124;5.422;2023-03-03T05:59:08;15.95;;;5.88;;
71963;SDS011;59834;52.124;5.422;2023-03-03T06:01:34;21.15;;;6.70;;
71963;SDS011;59834;52.124;5.422;2023-03-03T06:04:01;19.42;;;5.85;;
71963;SDS011;59834;52.124;5.422;2023-03-03T06:06:27;17.73;;;6.70;;
71963;SDS011;59834;52.124;5.422;2023-03-03T06:08:54;13.02;;;4.60;;
71963;SDS011;59834;52.124;5.422;2023-03-03T06:11:22;18.88;;;5.90;;
71963;SDS011;59834;52.124;5.422;2023-03-03T06:13:49;21.25;;;5.03;;
71963;SDS011;59834;52.124;5.422;2023-03-03T06:16:15;16.85;;;5.63;;
71963;SDS011;59834;52.124;5.422;2023-03-03T06:18:42;21.67;;;5.00;;
71963;SDS011;59834;52.124;5.422;2023-03-03T06:21:09;22.13;;;6.55;;
71963;SDS011;59834;52.124;5.422;2023-03-03T06:23:35;15.05;;;4.80;;
71963;SDS011;59834;52.124;5.422;2023-03-03T06:26:01;22.35;;;6.07;;
71963;SDS011;59834;52.124;5.422;2023-03-03T06:28:29;25.35;;;6.25;;
71963;SDS011;59834;52.124;5.422;2023-03-03T06:30:55;10.87;;;3.83;;
71963;SDS011;59834;52.124;5.422;2023-03-03T06:33:22;20.65;;;5.43;;
71963;SDS011;59834;52.124;5.422;2023-03-03T06:35:49;17.52;;;5.18;;
71963;SDS011;59834;52.124;5.422;2023-03-03T06:38:17;20.83;;;3.92;;
71963;SDS011;59834;52.124;5.422;2023-03-03T06:40:44;22.73;;;5.55;;
71963;SDS011;59834;52.124;5.422;2023-03-03T06:43:12;11.80;;;4.33;;
71963;SDS011;59834;52.124;5.422;2023-03-03T06:45:39;18.00;;;4.95;;
71963;SDS011;59834;52.124;5.422;2023-03-03T06:48:05;18.00;;;3.83;;
71963;SDS011;59834;52.124;5.422;2023-03-03T06:50:32;13.15;;;4.75;;
71963;SDS011;59834;52.124;5.422;2023-03-03T06:53:17;11.57;;;3.25;;
71963;SDS011;59834;52.124;5.422;2023-03-03T06:55:44;12.10;;;2.40;;
71963;SDS011;59834;52.124;5.422;2023-03-03T06:58:12;8.70;;;2.97;;
71963;SDS011;59834;52.124;5.422;2023-03-03T07:00:42;8.68;;;3.45;;
71963;SDS011;59834;52.124;5.422;2023-03-03T07:03:14;7.10;;;2.38;;
71963;SDS011;59834;52.124;5.422;2023-03-03T07:05:42;8.85;;;2.58;;
71963;SDS011;59834;52.124;5.422;2023-03-03T07:08:19;8.60;;;3.00;;
71963;SDS011;59834;52.124;5.422;2023-03-03T07:10:48;6.97;;;1.83;;
71963;SDS011;59834;52.124;5.422;2023-03-03T07:13:20;9.77;;;2.83;;
71963;SDS011;59834;52.124;5.422;2023-03-03T07:15:51;9.90;;;3.13;;
71963;SDS011;59834;52.124;5.422;2023-03-03T07:21:29;8.40;;;3.20;;
71963;SDS011;59834;52.124;5.422;2023-03-03T07:23:58;9.70;;;2.92;;
71963;SDS011;59834;52.124;5.422;2023-03-03T07:26:28;8.38;;;2.63;;
71963;SDS011;59834;52.124;5.422;2023-03-03T07:31:47;10.88;;;2.85;;
71963;SDS011;59834;52.124;5.422;2023-03-03T07:34:26;16.77;;;3.73;;
71963;SDS011;59834;52.124;5.422;2023-03-03T07:37:02;8.40;;;3.17;;
71963;SDS011;59834;52.124;5.422;2023-03-03T07:39:39;10.07;;;3.60;;
71963;SDS011;59834;52.124;5.422;2023-03-03T07:44:38;8.40;;;3.22;;
71963;SDS011;59834;52.124;5.422;2023-03-03T07:47:16;10.20;;;3.27;;
71963;SDS011;59834;52.124;5.422;2023-03-03T07:55:51;11.30;;;3.88;;
71963;SDS011;59834;52.124;5.422;2023-03-03T07:58:23;12.02;;;3.70;;
71963;SDS011;59834;52.124;5.422;2023-03-03T08:01:22;9.27;;;3.90;;
71963;SDS011;59834;52.124;5.422;2023-03-03T08:03:53;12.68;;;3.45;;
71963;SDS011;59834;52.124;5.422;2023-03-03T08:06:34;14.77;;;4.05;;
71963;SDS011;59834;52.124;5.422;2023-03-03T08:09:24;10.82;;;2.85;;
71963;SDS011;59834;52.124;5.422;2023-03-03T08:14:35;10.73;;;2.83;;
71963;SDS011;59834;52.124;5.422;2023-03-03T08:17:06;10.85;;;3.03;;
71963;SDS011;59834;52.124;5.422;2023-03-03T08:19:42;10.73;;;2.72;;
71963;SDS011;59834;52.124;5.422;2023-03-03T08:22:18;10.70;;;3.45;;
71963;SDS011;59834;52.124;5.422;2023-03-03T08:24:56;7.13;;;2.47;;
71963;SDS011;59834;52.124;5.422;2023-03-03T08:27:22;8.57;;;2.80;;
71963;SDS011;59834;52.124;5.422;2023-03-03T08:29:49;7.90;;;3.22;;
71963;SDS011;59834;52.124;5.422;2023-03-03T08:32:15;12.70;;;3.90;;
71963;SDS011;59834;52.124;5.422;2023-03-03T08:34:42;9.60;;;4.18;;
71963;SDS011;59834;52.124;5.422;2023-03-03T08:37:09;8.23;;;3.65;;
71963;SDS011;59834;52.124;5.422;2023-03-03T08:39:36;11.70;;;2.80;;
71963;SDS011;59834;52.124;5.422;2023-03-03T08:42:02;12.15;;;4.65;;
71963;SDS011;59834;52.124;5.422;2023-03-03T08:44:29;9.68;;;3.72;;
71963;SDS011;59834;52.124;5.422;2023-03-03T08:46:55;8.85;;;2.80;;
71963;SDS011;59834;52.124;5.422;2023-03-03T08:49:22;9.18;;;3.05;;
71963;SDS011;59834;52.124;5.422;2023-03-03T08:51:48;10.40;;;3.30;;
71963;SDS011;59834;52.124;5.422;2023-03-03T08:54:15;8.57;;;3.60;;
71963;SDS011;59834;52.124;5.422;2023-03-03T08:56:41;9.65;;;3.20;;
71963;SDS011;59834;52.124;5.422;2023-03-03T08:59:08;6.78;;;2.20;;
71963;SDS011;59834;52.124;5.422;2023-03-03T09:01:38;6.63;;;3.00;;
71963;SDS011;59834;52.124;5.422;2023-03-03T09:04:05;6.37;;;2.90;;
71963;SDS011;59834;52.124;5.422;2023-03-03T09:06:31;6.05;;;2.13;;
71963;SDS011;59834;52.124;5.422;2023-03-03T09:08:58;5.57;;;2.40;;
71963;SDS011;59834;52.124;5.422;2023-03-03T09:11:26;6.18;;;2.33;;
71963;SDS011;59834;52.124;5.422;2023-03-03T09:13:58;5.53;;;2.38;;
71963;SDS011;59834;52.124;5.422;2023-03-03T09:16:33;6.37;;;2.37;;
71963;SDS011;59834;52.124;5.422;2023-03-03T09:21:53;7.60;;;2.30;;
71963;SDS011;59834;52.124;5.422;2023-03-03T09:24:25;8.13;;;2.75;;
71963;SDS011;59834;52.124;5.422;2023-03-03T09:26:54;4.82;;;2.10;;
71963;SDS011;59834;52.124;5.422;2023-03-03T09:29:25;5.27;;;2.33;;
71963;SDS011;59834;52.124;5.422;2023-03-03T09:31:54;6.15;;;2.55;;
71963;SDS011;59834;52.124;5.422;2023-03-03T09:37:38;6.78;;;2.13;;
71963;SDS011;59834;52.124;5.422;2023-03-03T09:40:14;4.43;;;2.08;;
71963;SDS011;59834;52.124;5.422;2023-03-03T09:43:08;4.67;;;1.43;;
71963;SDS011;59834;52.124;5.422;2023-03-03T09:45:53;5.25;;;1.40;;
71963;SDS011;59834;52.124;5.422;2023-03-03T09:48:46;4.38;;;1.55;;
71963;SDS011;59834;52.124;5.422;2023-03-03T09:56:58;4.10;;;1.67;;
71963;SDS011;59834;52.124;5.422;2023-03-03T10:02:23;5.03;;;1.70;;
71963;SDS011;59834;52.124;5.422;2023-03-03T10:05:03;2.88;;;1.08;;
71963;SDS011;59834;52.124;5.422;2023-03-03T10:27:10;8.57;;;1.38;;
71963;SDS011;59834;52.124;5.422;2023-03-03T10:32:29;4.90;;;1.75;;
71963;SDS011;59834;52.124;5.422;2023-03-03T10:57:03;4.88;;;0.85;;
71963;SDS011;59834;52.124;5.422;2023-03-03T10:59:52;4.25;;;1.20;;
71963;SDS011;59834;52.124;5.422;2023-03-03T11:02:45;3.38;;;1.20;;
71963;SDS011;59834;52.124;5.422;2023-03-03T11:05:42;3.30;;;1.00;;
71963;SDS011;59834;52.124;5.422;2023-03-03T11:08:17;3.55;;;1.35;;
71963;SDS011;59834;52.124;5.422;2023-03-03T11:17:02;2.97;;;0.82;;
71963;SDS011;59834;52.124;5.422;2023-03-03T11:19:45;3.03;;;1.00;;
71963;SDS011;59834;52.124;5.422;2023-03-03T11:25:26;3.45;;;1.00;;
71963;SDS011;59834;52.124;5.422;2023-03-03T11:28:01;4.53;;;1.02;;
71963;SDS011;59834;52.124;5.422;2023-03-03T11:30:43;2.45;;;0.40;;
71963;SDS011;59834;52.124;5.422;2023-03-03T11:35:50;3.17;;;0.88;;
71963;SDS011;59834;52.124;5.422;2023-03-03T11:41:35;4.40;;;0.52;;
71963;SDS011;59834;52.124;5.422;2023-03-03T11:46:57;3.67;;;0.60;;
71963;SDS011;59834;52.124;5.422;2023-03-03T11:49:32;4.72;;;0.63;;
71963;SDS011;59834;52.124;5.422;2023-03-03T11:55:01;1.77;;;0.35;;
71963;SDS011;59834;52.124;5.422;2023-03-03T12:03:19;2.47;;;0.30;;
71963;SDS011;59834;52.124;5.422;2023-03-03T12:05:49;3.25;;;0.20;;
71963;SDS011;59834;52.124;5.422;2023-03-03T12:19:14;2.47;;;0.30;;
71963;SDS011;59834;52.124;5.422;2023-03-03T12:21:59;2.28;;;0.38;;
71963;SDS011;59834;52.124;5.422;2023-03-03T12:29:53;1.48;;;0.20;;
71963;SDS011;59834;52.124;5.422;2023-03-03T12:32:40;2.60;;;0.30;;
71963;SDS011;59834;52.124;5.422;2023-03-03T12:38:34;2.15;;;0.13;;
71963;SDS011;59834;52.124;5.422;2023-03-03T12:46:24;0.55;;;0.10;;
71963;SDS011;59834;52.124;5.422;2023-03-03T12:48:54;1.80;;;0.10;;
71963;SDS011;59834;52.124;5.422;2023-03-03T12:53:59;1.07;;;0.10;;
71963;SDS011;59834;52.124;5.422;2023-03-03T12:56:54;1.02;;;0.10;;
71963;SDS011;59834;52.124;5.422;2023-03-03T12:59:33;0.93;;;0.10;;
71963;SDS011;59834;52.124;5.422;2023-03-03T13:05:26;3.15;;;0.57;;
71963;SDS011;59834;52.124;5.422;2023-03-03T13:16:31;2.53;;;0.20;;
71963;SDS011;59834;52.124;5.422;2023-03-03T13:19:08;3.67;;;0.60;;
71963;SDS011;59834;52.124;5.422;2023-03-03T13:29:34;0.85;;;0.20;;
71963;SDS011;59834;52.124;5.422;2023-03-03T13:32:12;0.82;;;0.22;;
71963;SDS011;59834;52.124;5.422;2023-03-03T13:34:48;1.90;;;0.20;;
71963;SDS011;59834;52.124;5.422;2023-03-03T13:37:25;2.25;;;0.30;;
71963;SDS011;59834;52.124;5.422;2023-03-03T13:39:58;1.60;;;0.30;;
71963;SDS011;59834;52.124;5.422;2023-03-03T13:42:44;2.25;;;0.30;;
71963;SDS011;59834;52.124;5.422;2023-03-03T13:45:18;1.17;;;0.25;;
71963;SDS011;59834;52.124;5.422;2023-03-03T13:51:07;2.70;;;0.43;;
71963;SDS011;59834;52.124;5.422;2023-03-03T13:56:28;3.60;;;0.32;;
71963;SDS011;59834;52.124;5.422;2023-03-03T14:05:30;2.28;;;0.20;;
71963;SDS011;59834;52.124;5.422;2023-03-03T14:13:43;2.28;;;0.30;;
71963;SDS011;59834;52.124;5.422;2023-03-03T14:16:21;1.60;;;0.27;;
71963;SDS011;59834;52.124;5.422;2023-03-03T14:19:02;5.03;;;0.20;;
71963;SDS011;59834;52.124;5.422;2023-03-03T14:35:32;1.98;;;0.20;;
71963;SDS011;59834;52.124;5.422;2023-03-03T14:38:19;3.42;;;0.10;;
71963;SDS011;59834;52.124;5.422;2023-03-03T14:40:48;2.17;;;0.10;;
71963;SDS011;59834;52.124;5.422;2023-03-03T14:43:44;1.53;;;0.10;;
71963;SDS011;59834;52.124;5.422;2023-03-03T14:48:53;0.65;;;0.15;;
71963;SDS011;59834;52.124;5.422;2023-03-03T14:53:58;1.17;;;0.10;;
71963;SDS011;59834;52.124;5.422;2023-03-03T14:59:11;0.57;;;0.10;;
71963;SDS011;59834;52.124;5.422;2023-03-03T15:04:44;0.85;;;0.10;;
71963;SDS011;59834;52.124;5.422;2023-03-03T15:07:19;1.80;;;0.20;;
71963;SDS011;59834;52.124;5.422;2023-03-03T15:09:49;1.57;;;0.57;;
71963;SDS011;59834;52.124;5.422;2023-03-03T15:12:17;1.98;;;0.10;;
71963;SDS011;59834;52.124;5.422;2023-03-03T15:14:52;0.82;;;0.10;;
71963;SDS011;59834;52.124;5.422;2023-03-03T15:20:26;1.33;;;0.10;;
71963;SDS011;59834;52.124;5.422;2023-03-03T15:31:39;3.05;;;0.20;;
71963;SDS011;59834;52.124;5.422;2023-03-03T15:39:22;1.38;;;0.10;;
71963;SDS011;59834;52.124;5.422;2023-03-03T15:42:13;3.20;;;0.17;;
71963;SDS011;59834;52.124;5.422;2023-03-03T15:44:46;3.75;;;0.20;;
71963;SDS011;59834;52.124;5.422;2023-03-03T16:05:17;2.10;;;0.23;;
71963;SDS011;59834;52.124;5.422;2023-03-03T16:08:15;1.75;;;0.10;;
71963;SDS011;59834;52.124;5.422;2023-03-03T16:30:51;5.32;;;0.25;;
71963;SDS011;59834;52.124;5.422;2023-03-03T16:38:37;2.63;;;0.30;;
71963;SDS011;59834;52.124;5.422;2023-03-03T16:41:09;2.20;;;0.00;;
71963;SDS011;59834;52.124;5.422;2023-03-03T16:52:14;5.03;;;0.10;;
71963;SDS011;59834;52.124;5.422;2023-03-03T16:54:57;2.95;;;0.10;;
71963;SDS011;59834;52.124;5.422;2023-03-03T17:05:26;3.42;;;0.20;;
71963;SDS011;59834;52.124;5.422;2023-03-03T17:08:22;1.70;;;0.20;;
71963;SDS011;59834;52.124;5.422;2023-03-03T17:13:55;2.47;;;0.20;;
71963;SDS011;59834;52.124;5.422;2023-03-03T17:25:43;3.42;;;0.50;;
71963;SDS011;59834;52.124;5.422;2023-03-03T17:42:04;4.53;;;0.47;;
71963;SDS011;59834;52.124;5.422;2023-03-03T17:55:18;5.23;;;0.60;;
71963;SDS011;59834;52.124;5.422;2023-03-03T18:13:50;4.78;;;0.60;;
71963;SDS011;59834;52.124;5.422;2023-03-03T18:31:13;10.30;;;0.98;;
71963;SDS011;59834;52.124;5.422;2023-03-03T18:36:12;9.23;;;1.33;;
71963;SDS011;59834;52.124;5.422;2023-03-03T18:38:42;10.93;;;1.73;;
71963;SDS011;59834;52.124;5.422;2023-03-03T18:41:12;9.25;;;0.50;;
71963;SDS011;59834;52.124;5.422;2023-03-03T18:43:49;17.95;;;0.90;;
71963;SDS011;59834;52.124;5.422;2023-03-03T18:56:49;11.25;;;0.93;;
71963;SDS011;59834;52.124;5.422;2023-03-03T19:02:23;8.07;;;0.63;;
71963;SDS011;59834;52.124;5.422;2023-03-03T19:05:04;13.55;;;1.52;;
71963;SDS011;59834;52.124;5.422;2023-03-03T19:07:46;13.55;;;1.40;;
71963;SDS011;59834;52.124;5.422;2023-03-03T19:20:24;22.35;;;1.35;;
71963;SDS011;59834;52.124;5.422;2023-03-03T19:23:04;14.05;;;1.02;;
71963;SDS011;59834;52.124;5.422;2023-03-03T19:25:33;6.15;;;0.80;;
71963;SDS011;59834;52.124;5.422;2023-03-03T19:28:04;10.10;;;0.80;;
71963;SDS011;59834;52.124;5.422;2023-03-03T19:30:48;9.50;;;1.08;;
71963;SDS011;59834;52.124;5.422;2023-03-03T19:39:10;9.77;;;1.13;;
71963;SDS011;59834;52.124;5.422;2023-03-03T19:56:27;10.57;;;1.10;;
71963;SDS011;59834;52.124;5.422;2023-03-03T20:35:00;9.85;;;0.47;;
71963;SDS011;59834;52.124;5.422;2023-03-03T20:51:04;13.90;;;0.87;;
71963;SDS011;59834;52.124;5.422;2023-03-03T20:54:01;5.20;;;0.70;;
71963;SDS011;59834;52.124;5.422;2023-03-03T20:56:35;10.95;;;1.10;;
71963;SDS011;59834;52.124;5.422;2023-03-03T21:02:14;17.05;;;1.42;;
71963;SDS011;59834;52.124;5.422;2023-03-03T21:05:05;12.83;;;0.70;;
71963;SDS011;59834;52.124;5.422;2023-03-03T21:07:35;16.55;;;2.45;;
71963;SDS011;59834;52.124;5.422;2023-03-03T21:10:21;18.13;;;1.23;;
71963;SDS011;59834;52.124;5.422;2023-03-03T21:12:50;13.68;;;1.48;;
71963;SDS011;59834;52.124;5.422;2023-03-03T21:15:23;7.63;;;0.70;;
71963;SDS011;59834;52.124;5.422;2023-03-03T21:17:53;16.07;;;0.83;;
71963;SDS011;59834;52.124;5.422;2023-03-03T21:22:54;13.15;;;1.40;;
71963;SDS011;59834;52.124;5.422;2023-03-03T21:25:56;12.40;;;0.73;;
71963;SDS011;59834;52.124;5.422;2023-03-03T21:36:23;5.97;;;0.80;;
71963;SDS011;59834;52.124;5.422;2023-03-03T21:39:21;11.75;;;0.80;;
71963;SDS011;59834;52.124;5.422;2023-03-03T21:41:55;13.52;;;0.65;;
71963;SDS011;59834;52.124;5.422;2023-03-03T21:44:27;14.60;;;1.53;;
71963;SDS011;59834;52.124;5.422;2023-03-03T21:46:55;16.45;;;1.33;;
71963;SDS011;59834;52.124;5.422;2023-03-03T21:49:23;14.27;;;0.88;;
71963;SDS011;59834;52.124;5.422;2023-03-03T21:51:50;18.83;;;1.55;;
71963;SDS011;59834;52.124;5.422;2023-03-03T21:54:17;20.75;;;1.35;;
71963;SDS011;59834;52.124;5.422;2023-03-03T21:56:43;13.00;;;0.83;;
71963;SDS011;59834;52.124;5.422;2023-03-03T21:59:09;16.30;;;2.45;;
71963;SDS011;59834;52.124;5.422;2023-03-03T22:01:36;13.05;;;1.38;;
71963;SDS011;59834;52.124;5.422;2023-03-03T22:04:03;13.00;;;0.88;;
71963;SDS011;59834;52.124;5.422;2023-03-03T22:06:30;10.48;;;0.75;;
71963;SDS011;59834;52.124;5.422;2023-03-03T22:08:57;14.73;;;1.03;;
71963;SDS011;59834;52.124;5.422;2023-03-03T22:11:23;13.68;;;1.48;;
71963;SDS011;59834;52.124;5.422;2023-03-03T22:13:50;11.90;;;0.60;;
71963;SDS011;59834;52.124;5.422;2023-03-03T22:16:16;15.73;;;0.95;;
71963;SDS011;59834;52.124;5.422;2023-03-03T22:18:43;17.45;;;1.17;;
71963;SDS011;59834;52.124;5.422;2023-03-03T22:21:10;12.67;;;0.40;;
71963;SDS011;59834;52.124;5.422;2023-03-03T22:23:36;10.35;;;1.05;;
71963;SDS011;59834;52.124;5.422;2023-03-03T22:26:03;8.27;;;1.02;;
71963;SDS011;59834;52.124;5.422;2023-03-03T22:28:29;7.28;;;0.25;;
71963;SDS011;59834;52.124;5.422;2023-03-03T22:30:56;9.52;;;0.57;;
71963;SDS011;59834;52.124;5.422;2023-03-03T22:33:22;9.70;;;0.50;;
71963;SDS011;59834;52.124;5.422;2023-03-03T22:35:49;12.95;;;0.60;;
71963;SDS011;59834;52.124;5.422;2023-03-03T22:38:16;16.55;;;0.63;;
71963;SDS011;59834;52.124;5.422;2023-03-03T22:40:43;13.10;;;0.30;;
71963;SDS011;59834;52.124;5.422;2023-03-03T22:43:09;13.15;;;1.75;;
71963;SDS011;59834;52.124;5.422;2023-03-03T22:45:36;14.17;;;0.40;;
71963;SDS011;59834;52.124;5.422;2023-03-03T22:48:02;9.27;;;0.25;;
71963;SDS011;59834;52.124;5.422;2023-03-03T22:50:30;7.05;;;0.45;;
71963;SDS011;59834;52.124;5.422;2023-03-03T22:52:57;9.63;;;0.30;;